Highland, New York
Current Conditions -  °F | °C
As of 10:53 PM on Thursday 27 Nov 2014 (Local Time) from KPOU Reporting Station
Overcast Overcast  
Wind Chill: 30°   Ceiling: 6000
Heat Index: 30°   Visibility: 10mi
Dew Point: 27°   Wind: 0mph
Humidity: 88%   Direction: NA
Pressure: 30.06"   Gusts: NA
Location:  41.72°N, 73.96°W
Report Text: KPOU 280353Z AUTO 00000KT 10SM OVC060 M01/M03 A3006 RMK AO2 SLP178 T10111028 TSNO
Loading
Personal Weather Stations






























Interactive Weather Map New forecast layout! Learn more

10-Day Weather Forecast

Advertisements
Track Severe Weather on mobile